TAF Austria - 12 Dec 2017 - 2347 UTC - RocketRoute WX - rrwx.com
LOWG AMD 121834Z 1218/1318 06005KT 9999 FEW007 BKN025 TX06/1218Z TNM01/1318Z TEMPO 1218/1222 8000 RA BKN012 BECMG 1221/1223 4000 -RASN PROB40 TEMPO 1223/1306 1400 SN VV005 PROB30 TEMPO 1306/1309 1200 BCFG BKN003 BECMG 1308/1310 9999 NSW FEW010 BKN060 LOWI AMD 122124Z 1221/1318 VRB02KT 6000 -SN SCT005 OVC020 TX03/1313Z TNM01/1307Z TEMPO 1221/1223 1500 SN VV005 BECMG 1222/1224 NSW BKN010 PROB40 1223/1310 OVC005 BECMG 1309/1311 9999 FEW010 SCT050 LOWK 121715Z 1218/1318 VRB02KT 8000 FEW002 SCT030 BKN130 TX04/1218Z TN01/1308Z PROB40 TEMPO 1218/1221 3000 BR SCT002 BKN005 TEMPO 1220/1223 4000 -RA SCT010 BKN040 TEMPO 1223/1315 -RASN SCT010 BKN030 PROB30 TEMPO 1303/1310 2000 SN BKN008 LOWL 121715Z 1218/1318 25005KT 9999 FEW020 SCT050 BKN120 TX04/1313Z TN00/1307Z TEMPO 1218/1222 27012KT -SHRASN BKN020 PROB30 1304/1308 VRB02KT 4000 BR BKN012 BECMG 1308/1310 08005KT CAVOK LOWS 121715Z 1218/1318 32008KT 9999 SCT040 BKN060 TX04/1312Z TNM02/1306Z TEMPO 1218/1224 4000 -SHSN SCT012 BKN025 BECMG 1218/1220 16007KT BECMG 1304/1306 FEW050 SCT120 BECMG 1308/1310 CAVOK BECMG 1316/1318 9999 FEW080 BKN120 LOWW 121715Z 1218/1324 30010KT 9999 FEW045 BKN060 TX06/1312Z TN02/1322Z TEMPO 1218/1222 31017KT -RA BECMG 1312/1314 15005KT CAVOK LOAN   LOXZ 121415Z 1215/1224 07008KT 9999 SCT050 BKN120 BECMG 1218/1221 VRB03KT 5000 -RASN FEW010 SCT040 BKN050

RocketRoute WX - rrwx.com weather for pilots